sensor_id;sensor_type;location;lat;lon;timestamp;pressure;altitude;pressure_sealevel;temperature;humidity
8451;BME280;4262;50.980;13.892;2023-04-07T00:02:23;50265.41;;;-142.97;26.17
8451;BME280;4262;50.980;13.892;2023-04-07T00:04:49;50236.16;;;-142.97;26.33
8451;BME280;4262;50.980;13.892;2023-04-07T00:07:16;50269.28;;;-142.97;26.42
8451;BME280;4262;50.980;13.892;2023-04-07T00:09:44;50230.31;;;-142.97;26.49
8451;BME280;4262;50.980;13.892;2023-04-07T00:12:11;50247.84;;;-142.97;26.86
8451;BME280;4262;50.980;13.892;2023-04-07T00:14:38;50263.44;;;-142.97;26.53
8451;BME280;4262;50.980;13.892;2023-04-07T00:17:04;50255.66;;;-142.97;26.59
8451;BME280;4262;50.980;13.892;2023-04-07T00:19:31;50286.84;;;-142.97;26.66
8451;BME280;4262;50.980;13.892;2023-04-07T00:21:58;50265.41;;;-142.97;26.78
8451;BME280;4262;50.980;13.892;2023-04-07T00:24:26;50251.75;;;-142.97;26.85
8451;BME280;4262;50.980;13.892;2023-04-07T00:26:54;50271.25;;;-142.97;26.94
8451;BME280;4262;50.980;13.892;2023-04-07T00:29:22;50216.66;;;-142.97;26.77
8451;BME280;4262;50.980;13.892;2023-04-07T00:31:49;50228.34;;;-142.97;26.60
8451;BME280;4262;50.980;13.892;2023-04-07T00:34:16;50242.00;;;-142.97;26.72
8451;BME280;4262;50.980;13.892;2023-04-07T00:36:43;50263.44;;;-142.97;26.71
8451;BME280;4262;50.980;13.892;2023-04-07T00:39:16;50269.28;;;-142.97;26.85
8451;BME280;4262;50.980;13.892;2023-04-07T00:41:43;50263.44;;;-142.97;26.78
8451;BME280;4262;50.980;13.892;2023-04-07T00:44:11;50197.16;;;-142.97;26.78
8451;BME280;4262;50.980;13.892;2023-04-07T00:46:38;50212.75;;;-142.97;26.97
8451;BME280;4262;50.980;13.892;2023-04-07T00:49:05;50214.72;;;-142.97;27.21
8451;BME280;4262;50.980;13.892;2023-04-07T00:51:32;50255.66;;;-142.97;27.14
8451;BME280;4262;50.980;13.892;2023-04-07T00:53:59;50226.41;;;-142.97;27.00
8451;BME280;4262;50.980;13.892;2023-04-07T00:56:27;50275.16;;;-142.97;26.94
8451;BME280;4262;50.980;13.892;2023-04-07T00:58:54;50265.41;;;-142.97;26.99
8451;BME280;4262;50.980;13.892;2023-04-07T01:01:26;50201.06;;;-142.97;26.86
8451;BME280;4262;50.980;13.892;2023-04-07T01:04:00;50245.91;;;-142.97;26.94
8451;BME280;4262;50.980;13.892;2023-04-07T01:06:30;50263.44;;;-142.97;26.97
8451;BME280;4262;50.980;13.892;2023-04-07T01:09:04;50243.94;;;-142.97;27.08
8451;BME280;4262;50.980;13.892;2023-04-07T01:11:36;50261.50;;;-142.97;26.97
8451;BME280;4262;50.980;13.892;2023-04-07T01:14:08;50242.00;;;-142.97;26.85
8451;BME280;4262;50.980;13.892;2023-04-07T01:16:45;50238.09;;;-142.97;27.17
8451;BME280;4262;50.980;13.892;2023-04-07T01:19:17;50247.84;;;-142.97;27.22
8451;BME280;4262;50.980;13.892;2023-04-07T01:21:56;50234.19;;;-142.97;27.26
8451;BME280;4262;50.980;13.892;2023-04-07T01:24:46;50228.34;;;-142.97;27.04
8451;BME280;4262;50.980;13.892;2023-04-07T01:27:30;50238.09;;;-142.97;26.89
8451;BME280;4262;50.980;13.892;2023-04-07T01:30:02;50247.84;;;-142.97;26.91
8451;BME280;4262;50.980;13.892;2023-04-07T01:32:30;50259.56;;;-142.97;26.82
8451;BME280;4262;50.980;13.892;2023-04-07T01:34:58;50249.81;;;-142.97;26.75
8451;BME280;4262;50.980;13.892;2023-04-07T01:37:27;50224.47;;;-142.97;26.54
8451;BME280;4262;50.980;13.892;2023-04-07T01:39:55;50253.69;;;-142.97;26.61
8451;BME280;4262;50.980;13.892;2023-04-07T01:42:22;50240.06;;;-142.97;26.69
8451;BME280;4262;50.980;13.892;2023-04-07T01:44:52;50269.28;;;-142.97;26.51
8451;BME280;4262;50.980;13.892;2023-04-07T01:47:22;50236.16;;;-142.97;26.56
8451;BME280;4262;50.980;13.892;2023-04-07T01:49:51;50224.47;;;-142.97;26.56
8451;BME280;4262;50.980;13.892;2023-04-07T01:52:18;50271.25;;;-142.97;26.63
8451;BME280;4262;50.980;13.892;2023-04-07T01:54:47;50257.59;;;-142.97;26.64
8451;BME280;4262;50.980;13.892;2023-04-07T01:57:15;50273.19;;;-142.97;26.61
8451;BME280;4262;50.980;13.892;2023-04-07T01:59:42;50232.25;;;-142.97;26.57
8451;BME280;4262;50.980;13.892;2023-04-07T02:02:10;50265.41;;;-142.97;26.77
8451;BME280;4262;50.980;13.892;2023-04-07T02:04:42;50240.06;;;-142.97;27.02
8451;BME280;4262;50.980;13.892;2023-04-07T02:07:15;50267.34;;;-142.97;26.85
8451;BME280;4262;50.980;13.892;2023-04-07T02:09:48;50265.41;;;-142.97;26.97
8451;BME280;4262;50.980;13.892;2023-04-07T02:12:17;50232.25;;;-142.97;27.07
8451;BME280;4262;50.980;13.892;2023-04-07T02:14:56;50261.50;;;-142.97;27.22
8451;BME280;4262;50.980;13.892;2023-04-07T02:17:26;50282.94;;;-142.97;27.18
8451;BME280;4262;50.980;13.892;2023-04-07T02:19:56;50238.09;;;-142.97;26.93
8451;BME280;4262;50.980;13.892;2023-04-07T02:22:24;50232.25;;;-142.97;26.87
8451;BME280;4262;50.980;13.892;2023-04-07T02:24:51;50230.31;;;-142.97;26.71
8451;BME280;4262;50.980;13.892;2023-04-07T02:27:25;50253.69;;;-142.97;26.92
8451;BME280;4262;50.980;13.892;2023-04-07T02:29:52;50220.56;;;-142.97;26.80
8451;BME280;4262;50.980;13.892;2023-04-07T02:32:21;50273.19;;;-142.97;26.90
8451;BME280;4262;50.980;13.892;2023-04-07T02:34:49;50220.56;;;-142.97;26.79
8451;BME280;4262;50.980;13.892;2023-04-07T02:37:17;50228.34;;;-142.97;26.92
8451;BME280;4262;50.980;13.892;2023-04-07T02:39:44;50243.94;;;-142.97;26.95
8451;BME280;4262;50.980;13.892;2023-04-07T02:42:10;50261.50;;;-142.97;26.93
8451;BME280;4262;50.980;13.892;2023-04-07T02:44:37;50226.41;;;-142.97;27.14
8451;BME280;4262;50.980;13.892;2023-04-07T02:47:04;50243.94;;;-142.97;27.19
8451;BME280;4262;50.980;13.892;2023-04-07T02:49:31;50263.44;;;-142.97;27.32
8451;BME280;4262;50.980;13.892;2023-04-07T02:51:58;50251.75;;;-142.97;27.11
8451;BME280;4262;50.980;13.892;2023-04-07T02:54:26;50232.25;;;-142.97;27.06
8451;BME280;4262;50.980;13.892;2023-04-07T02:56:52;50251.75;;;-142.97;26.92
8451;BME280;4262;50.980;13.892;2023-04-07T02:59:19;50236.16;;;-142.97;27.00
8451;BME280;4262;50.980;13.892;2023-04-07T03:01:48;50251.75;;;-142.97;27.09
8451;BME280;4262;50.980;13.892;2023-04-07T03:04:15;50240.06;;;-142.97;27.15
8451;BME280;4262;50.980;13.892;2023-04-07T03:06:42;50236.16;;;-142.97;27.05
8451;BME280;4262;50.980;13.892;2023-04-07T03:09:14;50228.34;;;-142.97;27.43
8451;BME280;4262;50.980;13.892;2023-04-07T03:11:42;50224.47;;;-142.97;27.30
8451;BME280;4262;50.980;13.892;2023-04-07T03:14:09;50243.94;;;-142.97;27.24
8451;BME280;4262;50.980;13.892;2023-04-07T03:16:54;50245.91;;;-142.97;27.34
8451;BME280;4262;50.980;13.892;2023-04-07T03:19:22;50251.75;;;-142.97;27.35
8451;BME280;4262;50.980;13.892;2023-04-07T03:21:51;50255.66;;;-142.97;27.12
8451;BME280;4262;50.980;13.892;2023-04-07T03:24:17;50230.31;;;-142.97;27.04
8451;BME280;4262;50.980;13.892;2023-04-07T03:26:47;50247.84;;;-142.97;27.02
8451;BME280;4262;50.980;13.892;2023-04-07T03:29:25;50265.41;;;-142.97;26.95
8451;BME280;4262;50.980;13.892;2023-04-07T03:31:52;50257.59;;;-142.97;26.99
8451;BME280;4262;50.980;13.892;2023-04-07T03:34:22;50259.56;;;-142.97;26.99
8451;BME280;4262;50.980;13.892;2023-04-07T03:36:49;50273.19;;;-142.97;27.07
8451;BME280;4262;50.980;13.892;2023-04-07T03:39:16;50275.16;;;-142.97;26.79
8451;BME280;4262;50.980;13.892;2023-04-07T03:41:43;50253.69;;;-142.97;27.11
8451;BME280;4262;50.980;13.892;2023-04-07T03:44:11;50275.16;;;-142.97;27.21
8451;BME280;4262;50.980;13.892;2023-04-07T03:46:40;50234.19;;;-142.97;27.04
8451;BME280;4262;50.980;13.892;2023-04-07T03:49:07;50247.84;;;-142.97;27.06
8451;BME280;4262;50.980;13.892;2023-04-07T03:51:36;50226.41;;;-142.97;27.04
8451;BME280;4262;50.980;13.892;2023-04-07T03:54:10;50251.75;;;-142.97;27.04
8451;BME280;4262;50.980;13.892;2023-04-07T03:56:40;50273.19;;;-142.97;27.40
8451;BME280;4262;50.980;13.892;2023-04-07T03:59:07;50263.44;;;-142.97;27.32
8451;BME280;4262;50.980;13.892;2023-04-07T04:01:44;50222.50;;;-142.97;27.25
8451;BME280;4262;50.980;13.892;2023-04-07T04:04:14;50257.59;;;-142.97;27.34
8451;BME280;4262;50.980;13.892;2023-04-07T04:06:41;50228.34;;;-142.97;27.26
8451;BME280;4262;50.980;13.892;2023-04-07T04:09:17;50257.59;;;-142.97;27.45
8451;BME280;4262;50.980;13.892;2023-04-07T04:11:46;50234.19;;;-142.97;27.35
8451;BME280;4262;50.980;13.892;2023-04-07T04:14:14;50240.06;;;-142.97;27.43
8451;BME280;4262;50.980;13.892;2023-04-07T04:16:53;50230.31;;;-142.97;27.31
8451;BME280;4262;50.980;13.892;2023-04-07T04:19:28;50271.25;;;-142.97;27.37
8451;BME280;4262;50.980;13.892;2023-04-07T04:21:58;50228.34;;;-142.97;27.43
8451;BME280;4262;50.980;13.892;2023-04-07T04:24:28;50240.06;;;-142.97;27.55
8451;BME280;4262;50.980;13.892;2023-04-07T04:26:59;50255.66;;;-142.97;27.54
8451;BME280;4262;50.980;13.892;2023-04-07T04:29:27;50251.75;;;-142.97;27.64
8451;BME280;4262;50.980;13.892;2023-04-07T04:31:58;50216.66;;;-142.97;27.51
8451;BME280;4262;50.980;13.892;2023-04-07T04:34:26;50255.66;;;-142.97;27.35
8451;BME280;4262;50.980;13.892;2023-04-07T04:36:54;50228.34;;;-142.97;27.37
8451;BME280;4262;50.980;13.892;2023-04-07T04:39:21;50247.84;;;-142.97;27.18
8451;BME280;4262;50.980;13.892;2023-04-07T04:41:48;50226.41;;;-142.97;27.52
8451;BME280;4262;50.980;13.892;2023-04-07T04:44:16;50226.41;;;-142.97;27.16
8451;BME280;4262;50.980;13.892;2023-04-07T04:46:43;50232.25;;;-142.97;27.22
8451;BME280;4262;50.980;13.892;2023-04-07T04:49:12;50261.50;;;-142.97;27.40
8451;BME280;4262;50.980;13.892;2023-04-07T04:51:42;50263.44;;;-142.97;27.23
8451;BME280;4262;50.980;13.892;2023-04-07T04:54:15;50255.66;;;-142.97;27.25
8451;BME280;4262;50.980;13.892;2023-04-07T04:56:42;50259.56;;;-142.97;27.04
8451;BME280;4262;50.980;13.892;2023-04-07T04:59:09;50226.41;;;-142.97;27.16
8451;BME280;4262;50.980;13.892;2023-04-07T05:01:49;50236.16;;;-142.97;26.99
8451;BME280;4262;50.980;13.892;2023-04-07T05:04:17;50226.41;;;-142.97;26.89
8451;BME280;4262;50.980;13.892;2023-04-07T05:06:53;50243.94;;;-142.97;27.01
8451;BME280;4262;50.980;13.892;2023-04-07T05:09:24;50247.84;;;-142.97;27.01
8451;BME280;4262;50.980;13.892;2023-04-07T05:11:52;50222.50;;;-142.97;27.05
8451;BME280;4262;50.980;13.892;2023-04-07T05:14:20;50234.19;;;-142.97;26.85
8451;BME280;4262;50.980;13.892;2023-04-07T05:16:53;50275.16;;;-142.97;26.79
8451;BME280;4262;50.980;13.892;2023-04-07T05:19:26;50228.34;;;-142.97;26.79
8451;BME280;4262;50.980;13.892;2023-04-07T05:21:59;50265.41;;;-142.97;26.94
8451;BME280;4262;50.980;13.892;2023-04-07T05:24:28;50230.31;;;-142.97;26.87
8451;BME280;4262;50.980;13.892;2023-04-07T05:27:00;50282.94;;;-142.97;26.85
8451;BME280;4262;50.980;13.892;2023-04-07T05:29:26;50238.09;;;-142.97;26.83
8451;BME280;4262;50.980;13.892;2023-04-07T05:31:54;50240.06;;;-142.97;26.72
8451;BME280;4262;50.980;13.892;2023-04-07T05:34:22;50261.50;;;-142.97;26.46
8451;BME280;4262;50.980;13.892;2023-04-07T05:36:53;50222.50;;;-142.97;26.24
8451;BME280;4262;50.980;13.892;2023-04-07T05:39:20;50255.66;;;-142.97;26.57
8451;BME280;4262;50.980;13.892;2023-04-07T05:41:50;50218.59;;;-142.97;26.44
8451;BME280;4262;50.980;13.892;2023-04-07T05:44:19;50232.25;;;-142.97;26.08
8451;BME280;4262;50.980;13.892;2023-04-07T05:46:46;50224.47;;;-142.97;26.21
8451;BME280;4262;50.980;13.892;2023-04-07T05:49:14;50208.84;;;-142.97;26.05
8451;BME280;4262;50.980;13.892;2023-04-07T05:51:42;50255.66;;;-142.97;26.06
8451;BME280;4262;50.980;13.892;2023-04-07T05:54:13;50240.06;;;-142.97;26.18
8451;BME280;4262;50.980;13.892;2023-04-07T05:56:40;50210.81;;;-142.97;26.39
8451;BME280;4262;50.980;13.892;2023-04-07T05:59:07;50210.81;;;-142.97;26.23
8451;BME280;4262;50.980;13.892;2023-04-07T06:01:34;50201.06;;;-142.97;25.88
8451;BME280;4262;50.980;13.892;2023-04-07T06:04:01;50175.72;;;-142.97;25.74
8451;BME280;4262;50.980;13.892;2023-04-07T06:06:28;50214.72;;;-142.97;25.54
8451;BME280;4262;50.980;13.892;2023-04-07T06:08:55;50201.06;;;-142.97;25.18
8451;BME280;4262;50.980;13.892;2023-04-07T06:11:25;50189.38;;;-142.97;25.33
8451;BME280;4262;50.980;13.892;2023-04-07T06:13:52;50208.84;;;-142.97;25.57
8451;BME280;4262;50.980;13.892;2023-04-07T06:16:19;50191.31;;;-142.97;25.35
8451;BME280;4262;50.980;13.892;2023-04-07T06:18:46;50169.88;;;-142.97;25.41
8451;BME280;4262;50.980;13.892;2023-04-07T06:21:14;50160.13;;;-142.97;24.87
8451;BME280;4262;50.980;13.892;2023-04-07T06:23:41;50171.81;;;-142.97;24.59
8451;BME280;4262;50.980;13.892;2023-04-07T06:26:09;50160.13;;;-142.97;24.15
8451;BME280;4262;50.980;13.892;2023-04-07T06:28:38;50146.47;;;-142.97;24.12
8451;BME280;4262;50.980;13.892;2023-04-07T06:31:04;50160.13;;;-142.97;23.89
8451;BME280;4262;50.980;13.892;2023-04-07T06:33:31;50169.88;;;-142.97;24.29
8451;BME280;4262;50.980;13.892;2023-04-07T06:35:58;50117.22;;;-142.97;24.02
8451;BME280;4262;50.980;13.892;2023-04-07T06:38:25;50154.28;;;-142.97;24.02
8451;BME280;4262;50.980;13.892;2023-04-07T06:40:53;50152.31;;;-142.97;23.77
8451;BME280;4262;50.980;13.892;2023-04-07T06:43:20;50154.28;;;-142.97;23.85
8451;BME280;4262;50.980;13.892;2023-04-07T06:46:02;50195.22;;;-142.97;23.32
8451;BME280;4262;50.980;13.892;2023-04-07T06:48:29;50191.31;;;-142.97;24.07
8451;BME280;4262;50.980;13.892;2023-04-07T06:50:57;50210.81;;;-142.97;23.81
8451;BME280;4262;50.980;13.892;2023-04-07T06:53:24;50224.47;;;-142.97;23.65
8451;BME280;4262;50.980;13.892;2023-04-07T06:56:01;50148.41;;;-142.97;23.68
8451;BME280;4262;50.980;13.892;2023-04-07T06:58:28;50150.38;;;-142.97;23.81
8451;BME280;4262;50.980;13.892;2023-04-07T07:00:54;50162.06;;;-142.97;23.54
8451;BME280;4262;50.980;13.892;2023-04-07T07:03:23;50121.13;;;-142.97;22.39
8451;BME280;4262;50.980;13.892;2023-04-07T07:05:53;50126.97;;;-142.97;22.20
8451;BME280;4262;50.980;13.892;2023-04-07T07:08:21;50107.47;;;-142.97;21.89
8451;BME280;4262;50.980;13.892;2023-04-07T07:10:47;50126.97;;;-142.97;21.83
8451;BME280;4262;50.980;13.892;2023-04-07T07:13:15;50107.47;;;-142.97;22.04
8451;BME280;4262;50.980;13.892;2023-04-07T07:15:43;50158.16;;;-142.97;21.65
8451;BME280;4262;50.980;13.892;2023-04-07T07:18:10;50113.34;;;-142.97;21.63
8451;BME280;4262;50.980;13.892;2023-04-07T07:20:38;50146.47;;;-142.97;22.01
8451;BME280;4262;50.980;13.892;2023-04-07T07:23:05;50109.44;;;-142.97;21.28
8451;BME280;4262;50.980;13.892;2023-04-07T07:25:32;50111.38;;;-142.97;21.13
8451;BME280;4262;50.980;13.892;2023-04-07T07:27:58;50107.47;;;-142.97;21.57
8451;BME280;4262;50.980;13.892;2023-04-07T07:30:25;50105.53;;;-142.97;21.56
8451;BME280;4262;50.980;13.892;2023-04-07T07:32:52;50115.28;;;-142.97;21.13
8451;BME280;4262;50.980;13.892;2023-04-07T07:35:19;50150.38;;;-142.97;20.42
8451;BME280;4262;50.980;13.892;2023-04-07T07:37:48;50093.84;;;-142.97;20.74
8451;BME280;4262;50.980;13.892;2023-04-07T07:40:14;50078.25;;;-142.97;20.74
8451;BME280;4262;50.980;13.892;2023-04-07T07:42:41;50093.84;;;-142.97;20.90
8451;BME280;4262;50.980;13.892;2023-04-07T07:45:09;50076.28;;;-142.97;20.26
8451;BME280;4262;50.980;13.892;2023-04-07T07:47:38;50117.22;;;-142.97;20.51
8451;BME280;4262;50.980;13.892;2023-04-07T07:50:05;50089.94;;;-142.97;20.42
8451;BME280;4262;50.980;13.892;2023-04-07T07:52:32;50125.03;;;-142.97;20.55
8451;BME280;4262;50.980;13.892;2023-04-07T07:55:01;50226.41;;;-142.97;20.70
8451;BME280;4262;50.980;13.892;2023-04-07T07:57:28;50232.25;;;-142.97;21.42
8451;BME280;4262;50.980;13.892;2023-04-07T07:59:57;50220.56;;;-142.97;21.56
8451;BME280;4262;50.980;13.892;2023-04-07T08:02:23;50232.25;;;-142.97;21.85
8451;BME280;4262;50.980;13.892;2023-04-07T08:04:55;50206.91;;;-142.97;22.04
8451;BME280;4262;50.980;13.892;2023-04-07T08:07:22;50232.25;;;-142.97;21.61
8451;BME280;4262;50.980;13.892;2023-04-07T08:09:48;50222.50;;;-142.97;21.79
8451;BME280;4262;50.980;13.892;2023-04-07T08:12:16;50230.31;;;-142.97;21.59
8451;BME280;4262;50.980;13.892;2023-04-07T08:14:43;50226.41;;;-142.97;22.18
8451;BME280;4262;50.980;13.892;2023-04-07T08:17:12;50245.91;;;-142.97;22.35
8451;BME280;4262;50.980;13.892;2023-04-07T08:19:38;50243.94;;;-142.97;22.21
8451;BME280;4262;50.980;13.892;2023-04-07T08:22:05;50236.16;;;-142.97;21.95
8451;BME280;4262;50.980;13.892;2023-04-07T08:24:31;50251.75;;;-142.97;22.03
8451;BME280;4262;50.980;13.892;2023-04-07T08:26:58;50240.06;;;-142.97;22.23
8451;BME280;4262;50.980;13.892;2023-04-07T08:29:27;50298.53;;;-142.97;22.60
8451;BME280;4262;50.980;13.892;2023-04-07T08:31:54;50216.66;;;-142.97;22.38
8451;BME280;4262;50.980;13.892;2023-04-07T08:34:21;50222.50;;;-142.97;22.28
8451;BME280;4262;50.980;13.892;2023-04-07T08:36:47;50243.94;;;-142.97;22.09
8451;BME280;4262;50.980;13.892;2023-04-07T08:39:14;50282.94;;;-142.97;22.03
8451;BME280;4262;50.980;13.892;2023-04-07T08:41:41;50232.25;;;-142.97;21.94
8451;BME280;4262;50.980;13.892;2023-04-07T08:44:10;50251.75;;;-142.97;22.12
8451;BME280;4262;50.980;13.892;2023-04-07T08:46:39;50230.31;;;-142.97;21.94
8451;BME280;4262;50.980;13.892;2023-04-07T08:49:08;50232.25;;;-142.97;22.64
8451;BME280;4262;50.980;13.892;2023-04-07T08:51:37;50259.56;;;-142.97;21.71
8451;BME280;4262;50.980;13.892;2023-04-07T08:54:10;50240.06;;;-142.97;21.85
8451;BME280;4262;50.980;13.892;2023-04-07T08:56:39;50238.09;;;-142.97;21.81
8451;BME280;4262;50.980;13.892;2023-04-07T08:59:07;50243.94;;;-142.97;21.93
8451;BME280;4262;50.980;13.892;2023-04-07T09:01:36;50234.19;;;-142.97;21.92
8451;BME280;4262;50.980;13.892;2023-04-07T09:04:05;50242.00;;;-142.97;21.79
8451;BME280;4262;50.980;13.892;2023-04-07T09:06:32;50240.06;;;-142.97;22.04
8451;BME280;4262;50.980;13.892;2023-04-07T09:09:00;50240.06;;;-142.97;22.11
8451;BME280;4262;50.980;13.892;2023-04-07T09:11:29;50251.75;;;-142.97;21.97
8451;BME280;4262;50.980;13.892;2023-04-07T09:13:56;50216.66;;;-142.97;22.35
8451;BME280;4262;50.980;13.892;2023-04-07T09:16:23;50236.16;;;-142.97;22.04
8451;BME280;4262;50.980;13.892;2023-04-07T09:18:51;50218.59;;;-142.97;22.45
8451;BME280;4262;50.980;13.892;2023-04-07T09:21:20;50257.59;;;-142.97;21.92
8451;BME280;4262;50.980;13.892;2023-04-07T09:23:47;50263.44;;;-142.97;21.85
8451;BME280;4262;50.980;13.892;2023-04-07T09:26:18;50251.75;;;-142.97;22.26
8451;BME280;4262;50.980;13.892;2023-04-07T09:28:48;50257.59;;;-142.97;21.79
8451;BME280;4262;50.980;13.892;2023-04-07T09:31:18;50238.09;;;-142.97;22.16
8451;BME280;4262;50.980;13.892;2023-04-07T09:33:46;50271.25;;;-142.97;22.33
8451;BME280;4262;50.980;13.892;2023-04-07T09:36:13;50240.06;;;-142.97;22.24
8451;BME280;4262;50.980;13.892;2023-04-07T09:38:43;50243.94;;;-142.97;22.85
8451;BME280;4262;50.980;13.892;2023-04-07T09:41:12;50236.16;;;-142.97;22.86
8451;BME280;4262;50.980;13.892;2023-04-07T09:43:40;50242.00;;;-142.97;22.99
8451;BME280;4262;50.980;13.892;2023-04-07T09:46:10;50240.06;;;-142.97;22.81
8451;BME280;4262;50.980;13.892;2023-04-07T09:48:38;50234.19;;;-142.97;23.36
8451;BME280;4262;50.980;13.892;2023-04-07T09:51:06;50243.94;;;-142.97;23.39
8451;BME280;4262;50.980;13.892;2023-04-07T09:53:43;50275.16;;;-142.97;23.30
8451;BME280;4262;50.980;13.892;2023-04-07T09:56:12;50261.50;;;-142.97;22.86
8451;BME280;4262;50.980;13.892;2023-04-07T09:58:42;50249.81;;;-142.97;22.91
8451;BME280;4262;50.980;13.892;2023-04-07T10:01:09;50238.09;;;-142.97;23.26
8451;BME280;4262;50.980;13.892;2023-04-07T10:03:37;50245.91;;;-142.97;22.88
8451;BME280;4262;50.980;13.892;2023-04-07T10:06:05;50257.59;;;-142.97;23.43
8451;BME280;4262;50.980;13.892;2023-04-07T10:08:34;50236.16;;;-142.97;22.77
8451;BME280;4262;50.980;13.892;2023-04-07T10:11:03;50247.84;;;-142.97;22.06
8451;BME280;4262;50.980;13.892;2023-04-07T10:13:32;50251.75;;;-142.97;22.24
8451;BME280;4262;50.980;13.892;2023-04-07T10:15:59;50249.81;;;-142.97;22.11
8451;BME280;4262;50.980;13.892;2023-04-07T10:18:29;50222.50;;;-142.97;22.25
8451;BME280;4262;50.980;13.892;2023-04-07T10:20:56;50240.06;;;-142.97;22.12
8451;BME280;4262;50.980;13.892;2023-04-07T10:23:33;50214.72;;;-142.97;22.52
8451;BME280;4262;50.980;13.892;2023-04-07T10:26:05;50232.25;;;-142.97;21.47
8451;BME280;4262;50.980;13.892;2023-04-07T10:28:33;50212.75;;;-142.97;22.64
8451;BME280;4262;50.980;13.892;2023-04-07T10:31:03;50220.56;;;-142.97;22.17
8451;BME280;4262;50.980;13.892;2023-04-07T10:33:47;50224.47;;;-142.97;21.62
8451;BME280;4262;50.980;13.892;2023-04-07T10:36:14;50238.09;;;-142.97;21.22
8451;BME280;4262;50.980;13.892;2023-04-07T10:38:40;50228.34;;;-142.97;21.05
8451;BME280;4262;50.980;13.892;2023-04-07T10:41:34;50197.16;;;-142.97;21.46
8451;BME280;4262;50.980;13.892;2023-04-07T10:44:02;50187.41;;;-142.97;20.94
8451;BME280;4262;50.980;13.892;2023-04-07T10:47:01;50226.41;;;-142.97;21.53
8451;BME280;4262;50.980;13.892;2023-04-07T10:49:28;50179.63;;;-142.97;21.23
8451;BME280;4262;50.980;13.892;2023-04-07T10:52:22;50175.72;;;-142.97;20.68
8451;BME280;4262;50.980;13.892;2023-04-07T10:58:15;50220.56;;;-142.97;20.62
8451;BME280;4262;50.980;13.892;2023-04-07T11:01:16;50226.41;;;-142.97;20.34
8451;BME280;4262;50.980;13.892;2023-04-07T11:03:53;50216.66;;;-142.97;19.96
8451;BME280;4262;50.980;13.892;2023-04-07T11:06:22;50238.09;;;-142.97;20.78
8451;BME280;4262;50.980;13.892;2023-04-07T11:08:50;50214.72;;;-142.97;20.76
8451;BME280;4262;50.980;13.892;2023-04-07T11:11:36;50240.06;;;-142.97;20.94
8451;BME280;4262;50.980;13.892;2023-04-07T11:14:05;50162.06;;;-142.97;21.36
8451;BME280;4262;50.980;13.892;2023-04-07T11:16:36;50177.66;;;-142.97;20.81
8451;BME280;4262;50.980;13.892;2023-04-07T11:19:03;50181.56;;;-142.97;21.20
8451;BME280;4262;50.980;13.892;2023-04-07T11:21:30;50144.53;;;-142.97;20.56
8451;BME280;4262;50.980;13.892;2023-04-07T11:23:57;50115.28;;;-142.97;20.84
8451;BME280;4262;50.980;13.892;2023-04-07T11:26:23;50134.78;;;-142.97;20.53
8451;BME280;4262;50.980;13.892;2023-04-07T11:28:52;50195.22;;;-142.97;20.55
8451;BME280;4262;50.980;13.892;2023-04-07T11:31:24;50169.88;;;-142.97;20.50
8451;BME280;4262;50.980;13.892;2023-04-07T11:33:52;50189.38;;;-142.97;20.67
8451;BME280;4262;50.980;13.892;2023-04-07T11:36:28;50195.22;;;-142.97;20.30
8451;BME280;4262;50.980;13.892;2023-04-07T11:38:55;50214.72;;;-142.97;20.49
8451;BME280;4262;50.980;13.892;2023-04-07T11:41:22;50232.25;;;-142.97;20.82
8451;BME280;4262;50.980;13.892;2023-04-07T11:44:03;50210.81;;;-142.97;21.15
8451;BME280;4262;50.980;13.892;2023-04-07T11:46:32;50226.41;;;-142.97;21.24
8451;BME280;4262;50.980;13.892;2023-04-07T11:49:08;50208.84;;;-142.97;21.77
8451;BME280;4262;50.980;13.892;2023-04-07T11:51:36;50232.25;;;-142.97;21.29
8451;BME280;4262;50.980;13.892;2023-04-07T11:54:02;50212.75;;;-142.97;21.15
8451;BME280;4262;50.980;13.892;2023-04-07T11:56:29;50210.81;;;-142.97;20.61
8451;BME280;4262;50.980;13.892;2023-04-07T11:59:06;50220.56;;;-142.97;21.03
8451;BME280;4262;50.980;13.892;2023-04-07T12:01:40;50216.66;;;-142.97;20.63
8451;BME280;4262;50.980;13.892;2023-04-07T12:04:11;50199.13;;;-142.97;20.61
8451;BME280;4262;50.980;13.892;2023-04-07T12:06:38;50208.84;;;-142.97;21.06
8451;BME280;4262;50.980;13.892;2023-04-07T12:09:07;50224.47;;;-142.97;21.17
8451;BME280;4262;50.980;13.892;2023-04-07T12:11:35;50195.22;;;-142.97;21.00
8451;BME280;4262;50.980;13.892;2023-04-07T12:14:03;50226.41;;;-142.97;20.75
8451;BME280;4262;50.980;13.892;2023-04-07T12:16:31;50187.41;;;-142.97;20.93
8451;BME280;4262;50.980;13.892;2023-04-07T12:18:59;50203.00;;;-142.97;21.20
8451;BME280;4262;50.980;13.892;2023-04-07T12:21:26;50228.34;;;-142.97;21.49
8451;BME280;4262;50.980;13.892;2023-04-07T12:23:53;50193.25;;;-142.97;21.30
8451;BME280;4262;50.980;13.892;2023-04-07T12:26:19;50189.38;;;-142.97;21.48
8451;BME280;4262;50.980;13.892;2023-04-07T12:28:46;50238.09;;;-142.97;21.37
8451;BME280;4262;50.980;13.892;2023-04-07T12:31:13;50208.84;;;-142.97;21.03
8451;BME280;4262;50.980;13.892;2023-04-07T12:33:39;50238.09;;;-142.97;21.29
8451;BME280;4262;50.980;13.892;2023-04-07T12:36:07;50199.13;;;-142.97;21.27
8451;BME280;4262;50.980;13.892;2023-04-07T12:38:35;50203.00;;;-142.97;21.05
8451;BME280;4262;50.980;13.892;2023-04-07T12:41:01;50191.31;;;-142.97;20.73
8451;BME280;4262;50.980;13.892;2023-04-07T12:43:28;50249.81;;;-142.97;21.66
8451;BME280;4262;50.980;13.892;2023-04-07T12:45:55;50208.84;;;-142.97;21.92
8451;BME280;4262;50.980;13.892;2023-04-07T12:48:21;50210.81;;;-142.97;21.55
8451;BME280;4262;50.980;13.892;2023-04-07T12:50:49;50220.56;;;-142.97;21.87
8451;BME280;4262;50.980;13.892;2023-04-07T12:53:17;50206.91;;;-142.97;21.42
8451;BME280;4262;50.980;13.892;2023-04-07T12:55:46;50203.00;;;-142.97;21.36
8451;BME280;4262;50.980;13.892;2023-04-07T12:58:13;50203.00;;;-142.97;21.60
8451;BME280;4262;50.980;13.892;2023-04-07T13:00:41;50212.75;;;-142.97;21.67
8451;BME280;4262;50.980;13.892;2023-04-07T13:03:08;50187.41;;;-142.97;21.33
8451;BME280;4262;50.980;13.892;2023-04-07T13:05:35;50197.16;;;-142.97;21.07